Time;durP1;ratioP1;P1;durP2;ratioP2;P2;SDS_P1;SDS_P2;PMS_P1;PMS_P2;Temp;Humidity;BMP_temperature;BMP_pressure;BME280_temperature;BME280_humidity;BME280_pressure;Samples;Min_cycle;Max_cycle;Signal;HPM_P1;HPM_P2
2021/05/31 00:00:57;;;;;;;4.70;3.53;;;14.90;60.10;;;;;;5034390;28;20064;-36
2021/05/31 00:03:23;;;;;;;8.30;4.30;;;14.80;60.60;;;;;;5016764;28;20100;-36
2021/05/31 00:05:48;;;;;;;8.30;4.00;;;14.80;60.70;;;;;;5017216;28;20029;-36
2021/05/31 00:08:14;;;;;;;7.28;4.13;;;14.80;61.20;;;;;;5016348;28;20036;-35
2021/05/31 00:10:40;;;;;;;5.18;4.10;;;14.70;61.50;;;;;;5034156;28;20030;-35
2021/05/31 00:13:05;;;;;;;8.07;4.00;;;14.60;61.70;;;;;;5034067;28;20378;-36
2021/05/31 00:15:32;;;;;;;4.80;3.80;;;14.50;62.00;;;;;;5033793;28;20484;-35
2021/05/31 00:17:58;;;;;;;7.82;4.18;;;14.50;62.20;;;;;;5015590;28;20036;-35
2021/05/31 00:20:24;;;;;;;13.48;6.93;;;14.70;61.70;;;;;;5015546;28;20032;-35
2021/05/31 00:22:50;;;;;;;6.10;4.15;;;14.70;61.90;;;;;;5032643;28;20041;-35
2021/05/31 00:25:16;;;;;;;7.35;4.28;;;14.60;62.00;;;;;;5033393;28;20025;-35
2021/05/31 00:27:42;;;;;;;8.90;5.10;;;14.70;61.70;;;;;;5015984;28;20099;-35
2021/05/31 00:30:09;;;;;;;5.93;4.50;;;14.60;62.00;;;;;;5033132;28;20088;-36
2021/05/31 00:32:36;;;;;;;6.68;4.70;;;14.60;62.10;;;;;;5015361;28;20112;-34
2021/05/31 00:35:03;;;;;;;11.05;6.68;;;14.50;62.30;;;;;;5033272;28;20030;-34
2021/05/31 00:37:30;;;;;;;9.15;5.38;;;14.50;62.50;;;;;;5033156;28;20025;-35
2021/05/31 00:39:55;;;;;;;8.48;4.07;;;14.50;62.60;;;;;;5015347;28;20436;-34
2021/05/31 00:42:21;;;;;;;8.93;5.10;;;14.40;62.80;;;;;;5033200;28;20022;-36
2021/05/31 00:44:46;;;;;;;6.10;4.43;;;14.30;63.40;;;;;;5033699;28;20029;-35
2021/05/31 00:47:12;;;;;;;9.25;4.93;;;14.30;63.60;;;;;;5033485;28;20476;-35
2021/05/31 00:49:38;;;;;;;7.20;4.60;;;14.20;63.90;;;;;;5015341;28;20033;-35
2021/05/31 00:52:08;;;;;;;7.70;4.65;;;14.10;64.50;;;;;;5033086;28;20044;-35
2021/05/31 00:54:35;;;;;;;9.45;5.35;;;14.10;64.60;;;;;;5033005;28;20568;-35
2021/05/31 00:57:02;;;;;;;7.72;5.45;;;14.10;64.90;;;;;;5032914;28;20116;-35
2021/05/31 00:59:29;;;;;;;9.48;5.10;;;14.00;64.90;;;;;;5032885;28;20032;-35
2021/05/31 01:01:55;;;;;;;9.20;4.90;;;14.00;65.10;;;;;;5032794;28;20037;-35
2021/05/31 01:04:21;;;;;;;8.70;4.57;;;14.00;65.30;;;;;;5015071;28;20030;-35
2021/05/31 01:06:54;;;;;;;11.57;4.85;;;14.00;65.30;;;;;;5032718;28;20140;-36
2021/05/31 01:09:34;;;;;;;14.20;5.13;;;14.00;65.30;;;;;;5032997;28;20133;-36
2021/05/31 01:12:28;;;;;;;11.35;5.10;;;13.90;65.70;;;;;;5032843;28;20030;-38
2021/05/31 01:15:07;;;;;;;9.60;5.10;;;13.80;66.10;;;;;;5032901;28;20052;-35
2021/05/31 01:17:52;;;;;;;7.30;5.10;;;13.80;66.30;;;;;;5032913;28;20025;-35
2021/05/31 01:20:28;;;;;;;9.57;5.07;;;13.80;66.20;;;;;;5032564;28;20022;-35
2021/05/31 01:22:56;;;;;;;9.00;5.55;;;13.80;66.60;;;;;;5032911;28;20026;-35
2021/05/31 01:25:48;;;;;;;9.18;5.10;;;13.80;66.50;;;;;;5032726;28;20022;-34
2021/05/31 01:28:43;;;;;;;9.77;5.85;;;13.90;66.20;;;;;;5032210;28;20053;-35
2021/05/31 01:31:10;;;;;;;8.13;5.55;;;13.80;66.50;;;;;;5032752;28;20071;-35
2021/05/31 01:33:36;;;;;;;10.38;5.60;;;13.80;66.60;;;;;;4984205;28;20026;-35
2021/05/31 01:36:04;;;;;;;5.30;4.72;;;13.70;66.90;;;;;;5035968;28;20026;-35
2021/05/31 01:38:32;;;;;;;9.27;5.95;;;13.80;66.80;;;;;;5018028;28;20029;-35
2021/05/31 01:40:59;;;;;;;7.45;5.38;;;13.70;67.00;;;;;;5036557;28;20044;-35
2021/05/31 01:43:26;;;;;;;8.68;5.72;;;13.60;67.20;;;;;;5036153;28;20056;-35
2021/05/31 01:45:52;;;;;;;8.05;5.50;;;13.70;67.30;;;;;;5002110;28;20021;-35
2021/05/31 01:48:18;;;;;;;8.82;5.60;;;13.60;67.40;;;;;;5035929;28;20473;-36
2021/05/31 01:50:44;;;;;;;8.55;5.30;;;13.60;67.70;;;;;;5036011;28;20036;-35
2021/05/31 01:53:12;;;;;;;8.43;5.10;;;13.60;67.80;;;;;;5035699;28;20100;-36
2021/05/31 01:55:39;;;;;;;14.10;6.25;;;13.50;68.20;;;;;;5036005;28;20098;-35
2021/05/31 01:58:05;;;;;;;12.90;6.25;;;13.50;67.90;;;;;;5035828;28;20045;-37
2021/05/31 02:00:30;;;;;;;10.55;5.38;;;13.40;68.30;;;;;;5017745;28;20036;-35
2021/05/31 02:02:56;;;;;;;10.20;6.47;;;13.40;68.40;;;;;;5036116;28;20049;-35
2021/05/31 02:05:22;;;;;;;15.30;7.20;;;13.50;68.50;;;;;;5036247;28;20040;-35
2021/05/31 02:07:48;;;;;;;8.25;5.53;;;13.40;68.70;;;;;;5035614;28;20510;-35
2021/05/31 02:10:14;;;;;;;12.35;6.00;;;13.30;69.00;;;;;;5035796;28;20026;-35
2021/05/31 02:13:01;;;;;;;11.07;6.97;;;13.30;69.10;;;;;;5017599;28;20029;-35
2021/05/31 02:15:35;;;;;;;10.15;6.07;;;13.30;69.40;;;;;;5035744;28;20026;-35
2021/05/31 02:18:08;;;;;;;9.05;6.00;;;13.30;69.60;;;;;;5035602;28;20033;-35
2021/05/31 02:20:36;;;;;;;9.13;5.72;;;13.20;69.80;;;;;;5035221;28;20025;-34
2021/05/31 02:23:04;;;;;;;9.25;6.43;;;13.20;70.10;;;;;;5035338;28;20048;-35
2021/05/31 02:25:31;;;;;;;11.85;6.85;;;13.20;70.30;;;;;;5035288;28;20091;-35
2021/05/31 02:27:58;;;;;;;11.00;6.50;;;13.10;70.40;;;;;;5035118;28;20041;-36
2021/05/31 02:30:24;;;;;;;9.70;6.22;;;13.10;70.40;;;;;;5035851;28;20034;-36
2021/05/31 02:32:59;;;;;;;9.30;5.93;;;13.00;71.00;;;;;;5035711;28;20025;-35
2021/05/31 02:35:26;;;;;;;8.90;6.75;;;13.10;70.60;;;;;;5035997;28;20112;-36
2021/05/31 02:37:53;;;;;;;12.93;7.47;;;13.10;71.00;;;;;;5035880;28;20079;-36
2021/05/31 02:40:20;;;;;;;11.70;7.15;;;13.10;70.90;;;;;;5035589;28;20032;-35
2021/05/31 02:42:52;;;;;;;10.35;6.97;;;13.00;71.10;;;;;;5035253;28;20125;-41
2021/05/31 02:45:19;;;;;;;18.25;6.97;;;13.10;70.90;;;;;;5016266;28;20022;-35
2021/05/31 02:47:46;;;;;;;14.32;7.35;;;13.10;71.00;;;;;;5017141;28;20021;-35
2021/05/31 02:50:13;;;;;;;11.82;6.15;;;13.10;71.30;;;;;;5017296;28;20025;-35
2021/05/31 02:52:41;;;;;;;12.98;7.07;;;13.00;71.30;;;;;;5035071;28;20053;-36
2021/05/31 02:55:12;;;;;;;15.43;8.43;;;13.00;71.40;;;;;;5017106;28;20025;-35
2021/05/31 02:57:39;;;;;;;9.38;6.75;;;12.90;71.60;;;;;;5034901;28;20052;-35
2021/05/31 03:00:07;;;;;;;10.98;7.20;;;12.80;71.90;;;;;;5034606;28;20064;-35
2021/05/31 03:02:33;;;;;;;10.88;7.20;;;12.70;72.50;;;;;;5035529;28;20052;-34
2021/05/31 03:04:59;;;;;;;12.18;7.07;;;12.70;72.80;;;;;;5034617;28;20029;-34
2021/05/31 03:07:25;;;;;;;14.48;7.05;;;12.70;73.00;;;;;;5034546;28;20084;-35
2021/05/31 03:09:50;;;;;;;11.30;6.80;;;12.60;73.10;;;;;;5034381;28;20065;-34
2021/05/31 03:12:16;;;;;;;12.52;7.90;;;12.60;73.30;;;;;;5034040;28;20096;-35
2021/05/31 03:14:42;;;;;;;12.30;7.30;;;12.60;73.60;;;;;;5035092;28;20361;-34
2021/05/31 03:17:07;;;;;;;11.18;7.55;;;12.70;73.40;;;;;;5033951;28;20025;-35
2021/05/31 03:19:33;;;;;;;15.60;7.63;;;12.80;73.20;;;;;;5034495;28;20108;-35
2021/05/31 03:21:59;;;;;;;12.23;7.40;;;12.80;73.10;;;;;;5034085;28;20377;-35
2021/05/31 03:24:24;;;;;;;12.73;7.07;;;12.80;73.40;;;;;;5033872;28;20474;-35
2021/05/31 03:26:50;;;;;;;11.98;8.00;;;12.70;73.50;;;;;;5033720;28;20056;-35
2021/05/31 03:29:16;;;;;;;14.70;9.55;;;12.60;73.90;;;;;;5034008;28;20132;-35
2021/05/31 03:31:41;;;;;;;13.00;7.95;;;12.60;74.20;;;;;;5034537;28;20079;-35
2021/05/31 03:34:07;;;;;;;19.45;8.68;;;12.60;74.40;;;;;;5033937;28;20035;-35
2021/05/31 03:36:33;;;;;;;17.77;8.85;;;12.60;74.30;;;;;;5016026;28;20063;-35
2021/05/31 03:38:58;;;;;;;13.98;9.25;;;12.70;74.10;;;;;;5016248;28;20026;-35
2021/05/31 03:41:24;;;;;;;21.08;9.40;;;12.70;74.40;;;;;;5016211;28;20090;-35
2021/05/31 03:43:50;;;;;;;15.23;8.48;;;12.50;74.70;;;;;;5034298;28;20405;-34
2021/05/31 03:46:16;;;;;;;15.85;9.18;;;12.50;74.90;;;;;;5017427;28;20323;-34
2021/05/31 03:48:42;;;;;;;14.10;8.82;;;12.50;75.20;;;;;;5034423;28;20021;-34
2021/05/31 03:51:08;;;;;;;16.85;8.88;;;12.50;75.40;;;;;;5034700;28;20141;-36
2021/05/31 03:53:38;;;;;;;23.75;9.07;;;12.50;75.40;;;;;;5034391;28;20040;-35
2021/05/31 03:56:05;;;;;;;20.55;10.70;;;12.50;75.50;;;;;;5034205;28;20548;-34
2021/05/31 03:58:32;;;;;;;15.95;9.20;;;12.50;75.60;;;;;;5034200;28;20493;-35
2021/05/31 04:00:58;;;;;;;17.83;8.93;;;12.50;75.60;;;;;;5034024;28;20033;-35
2021/05/31 04:03:25;;;;;;;14.50;8.70;;;12.50;75.80;;;;;;5017014;28;20029;-36
2021/05/31 04:11:36;;;;;;;13.07;8.27;;;12.70;75.80;;;;;;5034001;28;20136;-36
2021/05/31 04:14:12;;;;;;;18.35;8.07;;;12.40;76.60;;;;;;5033741;28;20021;-36
2021/05/31 04:16:41;;;;;;;14.05;8.07;;;12.10;77.80;;;;;;5033656;28;20029;-35
2021/05/31 04:19:08;;;;;;;10.38;7.22;;;12.00;78.60;;;;;;5015560;28;20481;-35
2021/05/31 04:21:35;;;;;;;10.88;7.72;;;11.90;79.20;;;;;;5015611;28;20041;-35
2021/05/31 04:24:02;;;;;;;17.58;8.45;;;12.00;78.80;;;;;;5033504;28;20413;-35
2021/05/31 04:26:28;;;;;;;13.75;7.72;;;12.10;78.50;;;;;;5033069;28;20037;-34
2021/05/31 04:28:54;;;;;;;15.02;8.15;;;12.10;78.60;;;;;;5033180;28;20112;-35
2021/05/31 04:31:20;;;;;;;11.80;7.18;;;12.10;78.50;;;;;;5033578;28;20397;-35
2021/05/31 04:33:46;;;;;;;12.90;8.52;;;12.10;78.30;;;;;;5015605;28;20030;-36
2021/05/31 04:36:11;;;;;;;12.90;7.68;;;12.10;78.30;;;;;;5033764;28;20052;-36
2021/05/31 04:38:38;;;;;;;42.33;24.83;;;12.10;78.50;;;;;;5033234;28;20037;-37
2021/05/31 04:41:04;;;;;;;18.83;9.77;;;12.30;77.90;;;;;;5033203;28;20078;-35
2021/05/31 04:43:30;;;;;;;14.68;8.00;;;12.40;77.30;;;;;;5033066;28;20041;-35
2021/05/31 04:45:56;;;;;;;15.40;8.43;;;12.40;77.20;;;;;;5033239;28;20029;-35
2021/05/31 04:48:22;;;;;;;15.13;9.38;;;12.50;77.10;;;;;;5034199;28;20072;-36
2021/05/31 04:50:48;;;;;;;18.30;9.43;;;12.50;77.30;;;;;;5033411;28;20021;-36
2021/05/31 04:53:14;;;;;;;12.57;8.88;;;12.50;77.50;;;;;;5033721;28;20076;-36
2021/05/31 04:55:41;;;;;;;22.17;10.23;;;12.70;77.50;;;;;;5033089;28;20026;-35
2021/05/31 04:58:06;;;;;;;16.50;9.27;;;12.80;77.00;;;;;;5015271;28;20044;-35
2021/05/31 05:00:32;;;;;;;14.32;8.43;;;12.80;76.80;;;;;;5033113;28;20018;-35
2021/05/31 05:02:58;;;;;;;23.40;11.00;;;12.90;76.60;;;;;;5032983;28;20466;-36
2021/05/31 05:05:25;;;;;;;16.80;9.75;;;13.00;76.70;;;;;;5032932;28;20433;-36
2021/05/31 05:07:52;;;;;;;17.33;10.07;;;13.10;76.50;;;;;;5033699;28;20501;-34
2021/05/31 05:10:20;;;;;;;18.42;11.00;;;13.30;76.10;;;;;;5036558;28;20025;-34
2021/05/31 05:12:47;;;;;;;20.08;10.80;;;13.40;75.20;;;;;;5036376;28;20018;-35
2021/05/31 05:15:14;;;;;;;18.85;10.18;;;13.60;74.90;;;;;;5037051;28;20390;-35
2021/05/31 05:17:40;;;;;;;20.92;10.77;;;13.70;74.60;;;;;;5036928;28;20413;-34
2021/05/31 05:20:07;;;;;;;24.75;10.30;;;13.80;74.80;;;;;;5036728;28;20026;-35
2021/05/31 05:22:32;;;;;;;17.70;10.57;;;13.80;74.70;;;;;;5036364;28;20026;-35
2021/05/31 05:24:58;;;;;;;26.25;12.60;;;13.80;74.80;;;;;;5036680;28;20033;-35
2021/05/31 05:27:25;;;;;;;18.73;11.20;;;14.00;74.10;;;;;;5036831;28;20057;-41
2021/05/31 05:29:50;;;;;;;24.98;11.43;;;14.10;74.10;;;;;;5037591;28;20115;-35
2021/05/31 05:32:16;;;;;;;24.15;12.18;;;14.00;73.90;;;;;;5037298;28;20424;-36
2021/05/31 05:34:42;;;;;;;22.27;11.95;;;14.00;74.00;;;;;;5037043;28;20048;-34
2021/05/31 05:37:11;;;;;;;18.98;11.45;;;14.20;73.70;;;;;;5036879;28;20148;-36
2021/05/31 05:47:42;;;;;;;27.05;12.95;;;14.40;72.60;;;;;;5036498;28;20032;-36
2021/05/31 05:50:12;;;;;;;36.15;14.38;;;14.50;72.40;;;;;;5036187;28;20037;-35
2021/05/31 05:52:38;;;;;;;20.83;11.82;;;14.60;73.10;;;;;;5036420;28;20025;-36
2021/05/31 05:55:06;;;;;;;21.33;11.75;;;14.50;72.40;;;;;;5035378;28;20044;-35
2021/05/31 05:57:32;;;;;;;27.25;12.30;;;14.60;72.00;;;;;;5035492;28;20484;-36
2021/05/31 06:00:00;;;;;;;19.75;12.13;;;14.70;71.40;;;;;;5035303;28;20030;-36
2021/05/31 06:02:26;;;;;;;20.65;13.15;;;14.80;71.60;;;;;;5035846;28;20446;-37
2021/05/31 06:04:52;;;;;;;19.02;11.63;;;14.90;71.00;;;;;;5035236;28;20044;-35
2021/05/31 06:07:17;;;;;;;20.77;11.50;;;14.90;70.70;;;;;;5036041;28;20453;-36
2021/05/31 06:09:43;;;;;;;21.88;11.75;;;15.00;70.40;;;;;;5035156;28;20030;-36
2021/05/31 06:12:09;;;;;;;23.60;12.95;;;14.80;70.80;;;;;;5035871;28;20459;-35
2021/05/31 06:14:34;;;;;;;21.75;12.07;;;15.00;70.80;;;;;;5035187;28;20041;-35
2021/05/31 06:17:00;;;;;;;25.77;12.52;;;15.10;70.50;;;;;;5035125;28;20014;-35
2021/05/31 06:19:28;;;;;;;21.27;12.27;;;15.20;70.30;;;;;;5033849;28;20117;-36
2021/05/31 06:21:54;;;;;;;20.55;12.52;;;15.30;70.20;;;;;;5034871;28;20051;-36
2021/05/31 06:24:19;;;;;;;26.55;12.77;;;15.40;69.40;;;;;;5035184;28;20100;-35
2021/05/31 06:26:45;;;;;;;20.83;12.18;;;15.60;69.00;;;;;;5034746;28;20127;-36
2021/05/31 06:29:11;;;;;;;18.70;12.27;;;15.70;69.10;;;;;;5034902;28;20033;-36
2021/05/31 06:31:37;;;;;;;22.17;11.85;;;16.20;67.10;;;;;;5034739;28;20026;-35
2021/05/31 06:34:03;;;;;;;26.65;12.95;;;16.00;66.80;;;;;;5034995;28;20401;-37
2021/05/31 06:36:30;;;;;;;17.27;10.82;;;16.00;67.60;;;;;;5034794;28;20021;-35
2021/05/31 06:38:56;;;;;;;16.88;12.57;;;16.00;67.70;;;;;;5034752;28;20029;-36
2021/05/31 06:41:22;;;;;;;21.48;11.90;;;16.30;67.00;;;;;;5034832;28;20140;-34
2021/05/31 06:43:48;;;;;;;23.48;12.30;;;16.70;65.60;;;;;;5035066;28;20096;-36
2021/05/31 06:46:13;;;;;;;20.58;11.20;;;16.80;64.80;;;;;;5034752;28;20068;-35
2021/05/31 06:48:39;;;;;;;24.70;12.35;;;16.30;66.40;;;;;;5034651;28;20085;-37
2021/05/31 06:51:05;;;;;;;21.35;12.75;;;16.30;66.50;;;;;;5034825;28;20033;-36
2021/05/31 06:53:31;;;;;;;21.85;11.90;;;16.50;66.20;;;;;;5035054;28;20045;-36
2021/05/31 06:55:57;;;;;;;27.02;11.20;;;16.50;66.30;;;;;;5034765;28;20025;-35
2021/05/31 06:58:22;;;;;;;19.33;12.10;;;16.70;66.00;;;;;;5034082;28;20022;-36
2021/05/31 07:00:48;;;;;;;19.50;11.15;;;16.80;65.50;;;;;;5033895;28;20023;-37
2021/05/31 07:03:14;;;;;;;19.73;11.35;;;16.50;65.70;;;;;;5016185;28;20029;-36
2021/05/31 07:05:40;;;;;;;19.90;12.32;;;16.70;65.60;;;;;;5034161;28;20033;-35
2021/05/31 07:08:06;;;;;;;22.48;12.48;;;17.00;64.10;;;;;;5033648;28;20037;-36
2021/05/31 07:10:32;;;;;;;21.80;11.48;;;17.20;64.30;;;;;;5033444;28;20088;-38
2021/05/31 07:12:59;;;;;;;22.80;10.88;;;17.20;64.00;;;;;;5033688;28;20030;-37
2021/05/31 07:15:25;;;;;;;18.08;11.40;;;17.30;63.60;;;;;;5016164;28;20087;-35
2021/05/31 07:17:51;;;;;;;18.73;11.10;;;17.50;63.70;;;;;;5026094;28;20025;-36
2021/05/31 07:20:19;;;;;;;15.63;9.95;;;18.00;62.10;;;;;;5016184;28;20073;-36
2021/05/31 07:22:45;;;;;;;15.35;10.60;;;17.80;61.40;;;;;;5034520;28;20025;-36
2021/05/31 07:25:14;;;;;;;23.00;10.95;;;18.10;61.20;;;;;;5016337;28;20025;-36
2021/05/31 07:27:41;;;;;;;15.63;10.65;;;18.30;60.30;;;;;;5033506;28;20091;-36
2021/05/31 07:30:08;;;;;;;17.20;9.52;;;19.00;58.30;;;;;;5034195;28;20328;-36
2021/05/31 07:32:36;;;;;;;13.80;9.52;;;19.40;56.30;;;;;;5033433;28;20072;-36
2021/05/31 07:35:03;;;;;;;17.67;8.93;;;20.30;53.80;;;;;;5033335;28;20030;-36
2021/05/31 07:37:30;;;;;;;18.45;9.98;;;20.30;54.20;;;;;;5033602;28;20104;-37
2021/05/31 07:39:56;;;;;;;13.95;8.85;;;20.80;53.50;;;;;;5034034;28;20080;-36
2021/05/31 07:42:21;;;;;;;20.67;10.60;;;20.50;53.60;;;;;;5033464;28;20421;-36
2021/05/31 07:44:47;;;;;;;16.55;10.57;;;20.40;53.30;;;;;;5033574;28;20076;-35
2021/05/31 07:47:13;;;;;;;14.52;9.65;;;21.10;51.40;;;;;;5033761;28;20051;-38
2021/05/31 07:49:38;;;;;;;17.77;10.13;;;21.30;50.60;;;;;;5015854;28;20326;-35
2021/05/31 07:52:18;;;;;;;16.35;9.95;;;21.30;50.20;;;;;;5015733;28;20027;-36
2021/05/31 07:54:44;;;;;;;20.88;9.77;;;21.40;49.90;;;;;;5032892;28;20034;-35
2021/05/31 07:57:10;;;;;;;14.85;9.40;;;21.30;50.30;;;;;;5032990;28;20025;-36
2021/05/31 07:59:36;;;;;;;14.75;9.32;;;20.80;52.00;;;;;;5032812;28;20159;-36
2021/05/31 08:02:02;;;;;;;13.05;8.05;;;21.40;50.90;;;;;;5014715;28;20021;-36
2021/05/31 08:04:28;;;;;;;11.73;7.78;;;21.80;49.20;;;;;;5014604;28;20025;-36
2021/05/31 08:06:55;;;;;;;17.15;9.35;;;21.50;49.50;;;;;;5015124;28;20390;-36
2021/05/31 08:09:20;;;;;;;14.25;8.15;;;21.00;51.00;;;;;;5015391;28;20052;-35
2021/05/31 08:11:46;;;;;;;12.80;8.07;;;20.90;51.20;;;;;;5032732;28;20026;-35
2021/05/31 08:14:12;;;;;;;14.45;7.70;;;21.30;50.30;;;;;;5015227;28;20022;-37
2021/05/31 08:16:38;;;;;;;14.25;7.40;;;21.70;49.00;;;;;;5033029;28;20055;-37
2021/05/31 08:19:03;;;;;;;11.85;7.60;;;22.80;46.60;;;;;;5015231;28;20048;-37
2021/05/31 08:21:30;;;;;;;13.65;7.47;;;22.80;46.50;;;;;;5032794;28;20053;-37
2021/05/31 08:23:55;;;;;;;16.35;7.63;;;23.50;44.00;;;;;;5032463;28;20033;-37
2021/05/31 08:26:21;;;;;;;10.48;7.13;;;23.40;44.00;;;;;;5032240;28;20444;-36
2021/05/31 08:28:47;;;;;;;13.30;6.85;;;23.20;44.40;;;;;;4998489;28;20044;-36
2021/05/31 08:31:13;;;;;;;9.07;6.45;;;23.60;43.40;;;;;;5032539;28;20026;-38
2021/05/31 08:33:39;;;;;;;10.48;6.20;;;23.20;43.50;;;;;;5014724;28;20388;-36
2021/05/31 08:36:05;;;;;;;15.95;8.20;;;23.30;43.60;;;;;;5032654;28;20516;-35
2021/05/31 08:38:34;;;;;;;8.75;6.43;;;24.00;42.40;;;;;;5033077;28;20121;-36
2021/05/31 08:41:00;;;;;;;7.03;5.03;;;23.10;43.70;;;;;;5015131;28;20476;-37
2021/05/31 08:43:26;;;;;;;8.90;5.90;;;22.40;45.20;;;;;;5016940;28;20035;-36
2021/05/31 08:45:52;;;;;;;8.98;5.85;;;22.10;45.70;;;;;;5020245;28;20116;-37
2021/05/31 08:48:18;;;;;;;8.90;5.95;;;22.10;46.10;;;;;;5037256;28;20486;-36
2021/05/31 08:50:44;;;;;;;10.65;5.43;;;22.80;44.40;;;;;;5038291;28;20021;-36
2021/05/31 08:53:10;;;;;;;10.80;5.90;;;23.70;42.30;;;;;;5037445;28;20519;-36
2021/05/31 08:55:36;;;;;;;11.52;5.60;;;23.90;41.20;;;;;;5019192;28;20021;-36
2021/05/31 08:58:03;;;;;;;12.15;6.88;;;23.70;41.30;;;;;;5036949;28;20018;-35
2021/05/31 09:00:32;;;;;;;7.13;5.32;;;23.70;42.40;;;;;;5036602;28;20017;-35
2021/05/31 09:03:01;;;;;;;7.82;4.90;;;23.30;41.30;;;;;;5036686;28;20036;-38
2021/05/31 09:05:38;;;;;;;7.80;4.25;;;22.90;41.50;;;;;;5036380;28;20020;-36
2021/05/31 09:08:10;;;;;;;8.73;5.88;;;23.10;39.40;;;;;;5036662;28;20030;-36
2021/05/31 09:10:50;;;;;;;11.45;5.72;;;23.30;40.50;;;;;;5036517;28;20385;-37
2021/05/31 09:13:30;;;;;;;6.85;3.90;;;22.90;41.50;;;;;;5036396;28;20018;-36
2021/05/31 09:16:15;;;;;;;4.75;3.05;;;23.00;36.60;;;;;;5036153;28;20074;-35
2021/05/31 09:18:51;;;;;;;7.80;4.10;;;22.70;36.40;;;;;;5036449;28;20052;-36
2021/05/31 09:21:20;;;;;;;7.35;4.55;;;22.50;39.80;;;;;;5036438;28;20441;-36
2021/05/31 09:23:48;;;;;;;12.13;4.97;;;22.60;38.70;;;;;;5036351;28;20069;-35
2021/05/31 09:26:14;;;;;;;9.45;5.05;;;22.90;39.30;;;;;;5035558;28;20029;-36
2021/05/31 09:28:44;;;;;;;10.45;6.80;;;23.30;40.10;;;;;;5035899;28;20096;-37
2021/05/31 09:31:19;;;;;;;10.52;7.00;;;23.70;39.20;;;;;;5035487;28;20022;-36
2021/05/31 09:34:02;;;;;;;14.85;7.28;;;23.70;41.10;;;;;;5035364;28;20030;-35
2021/05/31 09:36:29;;;;;;;13.18;7.50;;;23.80;40.70;;;;;;5035773;28;20025;-35
2021/05/31 09:38:56;;;;;;;15.35;7.68;;;23.80;41.60;;;;;;5035262;28;20037;-36
2021/05/31 09:41:32;;;;;;;8.88;7.40;;;24.10;41.80;;;;;;5017714;28;20052;-35
2021/05/31 09:44:04;;;;;;;13.30;7.20;;;25.00;38.70;;;;;;5035469;28;20037;-35
2021/05/31 09:46:41;;;;;;;10.48;6.47;;;25.30;38.30;;;;;;5036444;28;20026;-38
2021/05/31 09:49:18;;;;;;;11.57;6.93;;;24.60;38.50;;;;;;5035450;28;20037;-36
2021/05/31 09:52:01;;;;;;;12.68;7.45;;;24.30;39.00;;;;;;5035605;28;20021;-36
2021/05/31 09:54:33;;;;;;;10.95;6.18;;;23.20;40.20;;;;;;5017110;28;20444;-35
2021/05/31 09:57:00;;;;;;;13.57;7.00;;;23.40;41.00;;;;;;5035210;28;20041;-36
2021/05/31 09:59:30;;;;;;;8.68;5.45;;;23.70;41.00;;;;;;5035020;28;20087;-37
2021/05/31 10:02:03;;;;;;;11.52;4.45;;;24.00;38.20;;;;;;5035314;28;20029;-36
2021/05/31 10:09:41;;;;;;;8.75;6.13;;;24.40;39.60;;;;;;5035757;28;20025;-36
2021/05/31 10:12:08;;;;;;;8.23;5.07;;;24.50;38.40;;;;;;5017980;28;20477;-36
2021/05/31 10:14:33;;;;;;;10.68;6.10;;;25.10;38.00;;;;;;5035782;28;20072;-37
2021/05/31 10:17:00;;;;;;;11.65;5.35;;;25.30;35.40;;;;;;5035329;28;20465;-36
2021/05/31 10:19:26;;;;;;;15.23;9.07;;;25.60;35.90;;;;;;5035600;28;20108;-36
2021/05/31 10:21:52;;;;;;;13.27;7.63;;;24.80;36.60;;;;;;5017316;28;20033;-35
2021/05/31 10:24:17;;;;;;;11.77;6.55;;;23.50;39.40;;;;;;5034721;28;20099;-35
2021/05/31 10:26:43;;;;;;;10.82;6.25;;;22.80;41.60;;;;;;5034921;28;20050;-36
2021/05/31 10:29:09;;;;;;;7.13;5.45;;;23.60;39.10;;;;;;5035359;28;20508;-36
2021/05/31 10:31:45;;;;;;;8.43;5.20;;;24.20;37.60;;;;;;5017447;28;20041;-41
2021/05/31 10:34:22;;;;;;;6.07;3.60;;;24.50;35.60;;;;;;5035502;28;20029;-36
2021/05/31 10:36:51;;;;;;;7.20;3.33;;;24.50;33.80;;;;;;5034812;28;20053;-37
2021/05/31 10:39:27;;;;;;;7.35;3.50;;;25.20;32.70;;;;;;5034140;28;20108;-36
2021/05/31 10:42:07;;;;;;;9.48;5.00;;;26.20;32.20;;;;;;5034367;28;20025;-36
2021/05/31 10:44:34;;;;;;;9.90;4.23;;;25.70;34.10;;;;;;5034732;28;20473;-36
2021/05/31 10:47:13;;;;;;;7.43;5.30;;;25.80;33.80;;;;;;5034554;28;20025;-36
2021/05/31 10:49:39;;;;;;;7.50;3.95;;;26.00;34.30;;;;;;5035294;28;20028;-36
2021/05/31 10:52:05;;;;;;;7.32;5.28;;;25.90;34.30;;;;;;5016643;28;20025;-36
2021/05/31 10:54:36;;;;;;;9.15;4.43;;;25.30;35.00;;;;;;5034533;28;20601;-36
2021/05/31 10:57:07;;;;;;;7.32;4.32;;;26.00;34.30;;;;;;5034684;28;20017;-36
2021/05/31 10:59:58;;;;;;;5.53;3.63;;;25.30;34.50;;;;;;5034270;28;20059;-36
2021/05/31 11:02:28;;;;;;;5.03;3.63;;;25.70;33.20;;;;;;5034465;28;20053;-36
2021/05/31 11:05:07;;;;;;;;;;;26.10;32.30;;;;;;5017146;28;20405;-37
2021/05/31 11:07:33;;;;;;;7.40;3.22;;;25.60;31.50;;;;;;5034116;28;19971;-36
2021/05/31 11:09:59;;;;;;;6.85;3.60;;;25.70;31.90;;;;;;5034705;28;20025;-38
2021/05/31 11:12:32;;;;;;;4.60;3.38;;;25.70;31.40;;;;;;5033795;28;20507;-36
2021/05/31 11:15:13;;;;;;;5.05;3.00;;;25.30;29.90;;;;;;5016443;28;20071;-35
2021/05/31 11:17:52;;;;;;;6.40;3.45;;;25.00;29.90;;;;;;5033895;28;20017;-36
2021/05/31 11:20:20;;;;;;;4.63;3.40;;;25.60;28.40;;;;;;5034115;28;20056;-36
2021/05/31 11:23:00;;;;;;;10.23;3.80;;;26.30;28.90;;;;;;5034280;28;20029;-37
2021/05/31 11:25:27;;;;;;;3.67;3.33;;;25.80;31.00;;;;;;5034131;28;20071;-38
2021/05/31 11:27:58;;;;;;;3.75;3.15;;;26.30;30.60;;;;;;5000421;28;20072;-36
2021/05/31 11:30:33;;;;;;;6.68;3.90;;;26.50;30.20;;;;;;4995894;28;20034;-36
2021/05/31 11:33:03;;;;;;;5.03;3.42;;;26.70;29.20;;;;;;5013673;28;20480;-36
2021/05/31 11:35:30;;;;;;;7.70;3.90;;;25.60;31.00;;;;;;5013559;28;20497;-36
2021/05/31 11:37:56;;;;;;;6.75;4.20;;;25.30;30.80;;;;;;4996573;28;20037;-36
2021/05/31 11:40:29;;;;;;;8.70;4.32;;;25.90;32.70;;;;;;5013499;28;20026;-35
2021/05/31 11:43:01;;;;;;;11.07;4.75;;;26.30;32.60;;;;;;5013792;28;20026;-36
2021/05/31 11:45:35;;;;;;;11.80;5.25;;;25.70;33.90;;;;;;5014057;28;20466;-37
2021/05/31 11:48:06;;;;;;;6.80;4.55;;;26.30;32.40;;;;;;5013666;28;20022;-37
2021/05/31 11:50:34;;;;;;;6.82;4.35;;;27.20;30.80;;;;;;5013102;28;20076;-36
2021/05/31 11:53:01;;;;;;;10.38;4.18;;;27.80;28.80;;;;;;5013348;28;20036;-36
2021/05/31 11:55:29;;;;;;;9.82;4.70;;;27.90;29.40;;;;;;5013293;28;20030;-36
2021/05/31 11:57:55;;;;;;;5.95;4.95;;;26.90;29.80;;;;;;5012977;28;20037;-35
2021/05/31 12:00:30;;;;;;;6.13;4.97;;;26.70;31.30;;;;;;5013631;28;20358;-35
2021/05/31 12:02:56;;;;;;;7.10;4.70;;;27.00;32.00;;;;;;5013286;28;20030;-36
2021/05/31 12:05:38;;;;;;;5.00;3.90;;;27.80;31.20;;;;;;5012900;28;20018;-36
2021/05/31 12:08:10;;;;;;;8.15;4.72;;;27.50;29.10;;;;;;5013024;28;20036;-37
2021/05/31 12:10:37;;;;;;;5.70;3.70;;;26.90;30.00;;;;;;5013002;28;20026;-36
2021/05/31 12:13:03;;;;;;;9.38;4.75;;;26.20;31.00;;;;;;5013169;28;20108;-36
2021/05/31 12:15:29;;;;;;;7.75;4.60;;;26.60;32.10;;;;;;5013401;28;20382;-35
2021/05/31 12:17:55;;;;;;;6.30;4.85;;;27.30;30.40;;;;;;5013486;28;20052;-35
2021/05/31 12:20:26;;;;;;;5.65;3.90;;;26.80;30.80;;;;;;5014438;28;20112;-36
2021/05/31 12:22:53;;;;;;;5.25;4.00;;;27.80;29.30;;;;;;5005958;28;20413;-37
2021/05/31 12:25:18;;;;;;;5.50;4.60;;;28.40;29.30;;;;;;5013980;28;20419;-35
2021/05/31 12:27:44;;;;;;;9.88;4.55;;;26.50;31.90;;;;;;5041864;28;20056;-36
2021/05/31 12:30:13;;;;;;;8.70;4.93;;;26.30;32.50;;;;;;5052824;28;20032;-36
2021/05/31 12:32:39;;;;;;;11.25;4.85;;;27.20;31.10;;;;;;5053265;28;20381;-36
2021/05/31 12:35:06;;;;;;;8.57;4.93;;;27.70;30.00;;;;;;5052946;28;20033;-36
2021/05/31 12:37:34;;;;;;;5.88;4.88;;;27.70;30.40;;;;;;5036272;28;20017;-35
2021/05/31 12:40:12;;;;;;;5.85;4.25;;;28.20;30.00;;;;;;5053459;28;20108;-35
2021/05/31 12:42:39;;;;;;;7.97;4.20;;;28.00;30.90;;;;;;5053381;28;20025;-35
2021/05/31 12:45:11;;;;;;;6.10;4.35;;;27.90;31.00;;;;;;5034894;28;20044;-36
2021/05/31 12:47:40;;;;;;;8.35;5.28;;;27.50;30.40;;;;;;5053134;28;20029;-36
2021/05/31 12:50:11;;;;;;;6.00;4.63;;;26.40;32.60;;;;;;5034826;28;20052;-36
2021/05/31 12:52:42;;;;;;;11.15;5.75;;;26.20;33.20;;;;;;5052771;28;20079;-38
2021/05/31 12:55:09;;;;;;;8.18;5.30;;;25.20;34.20;;;;;;5052199;28;20031;-35
2021/05/31 12:57:40;;;;;;;5.45;4.85;;;25.10;34.70;;;;;;5052211;28;20024;-35
2021/05/31 13:00:12;;;;;;;7.75;5.35;;;24.90;34.70;;;;;;5052106;28;20028;-37
2021/05/31 13:02:47;;;;;;;10.20;5.40;;;24.00;37.00;;;;;;5052175;28;20025;-36